sensor_id;sensor_type;location;lat;lon;timestamp;P1;durP1;ratioP1;P2;durP2;ratioP2
18893;SDS011;9579;49.488;8.226;2022-10-17T05:01:06;5.73;;;4.47;;
18893;SDS011;9579;49.488;8.226;2022-10-17T05:03:56;5.60;;;4.63;;
18893;SDS011;9579;49.488;8.226;2022-10-17T05:06:44;4.60;;;4.20;;
18893;SDS011;9579;49.488;8.226;2022-10-17T05:09:31;4.75;;;4.35;;
18893;SDS011;9579;49.488;8.226;2022-10-17T05:12:19;6.43;;;4.37;;
18893;SDS011;9579;49.488;8.226;2022-10-17T05:15:09;4.30;;;4.00;;
18893;SDS011;9579;49.488;8.226;2022-10-17T05:17:58;4.63;;;4.13;;
18893;SDS011;9579;49.488;8.226;2022-10-17T05:20:48;5.60;;;4.60;;
18893;SDS011;9579;49.488;8.226;2022-10-17T05:23:36;5.75;;;4.35;;
18893;SDS011;9579;49.488;8.226;2022-10-17T05:26:25;6.97;;;4.97;;
18893;SDS011;9579;49.488;8.226;2022-10-17T05:29:12;5.93;;;4.70;;
18893;SDS011;9579;49.488;8.226;2022-10-17T05:32:01;5.15;;;4.63;;
18893;SDS011;9579;49.488;8.226;2022-10-17T05:34:51;4.90;;;4.50;;
18893;SDS011;9579;49.488;8.226;2022-10-17T05:37:39;5.00;;;4.60;;
18893;SDS011;9579;49.488;8.226;2022-10-17T05:40:26;6.38;;;4.30;;
18893;SDS011;9579;49.488;8.226;2022-10-17T05:43:17;4.80;;;4.40;;
18893;SDS011;9579;49.488;8.226;2022-10-17T05:46:05;4.93;;;4.43;;
18893;SDS011;9579;49.488;8.226;2022-10-17T05:48:52;4.90;;;4.57;;
18893;SDS011;9579;49.488;8.226;2022-10-17T05:51:42;4.90;;;4.50;;
18893;SDS011;9579;49.488;8.226;2022-10-17T05:54:30;5.50;;;5.00;;
18893;SDS011;9579;49.488;8.226;2022-10-17T05:57:23;5.70;;;5.23;;
18893;SDS011;9579;49.488;8.226;2022-10-17T06:00:11;5.77;;;5.27;;
18893;SDS011;9579;49.488;8.226;2022-10-17T06:02:59;5.77;;;5.23;;
18893;SDS011;9579;49.488;8.226;2022-10-17T06:05:46;5.07;;;4.57;;
18893;SDS011;9579;49.488;8.226;2022-10-17T06:08:35;4.70;;;4.30;;
18893;SDS011;9579;49.488;8.226;2022-10-17T06:11:22;4.70;;;4.30;;
18893;SDS011;9579;49.488;8.226;2022-10-17T06:14:10;6.60;;;4.63;;
18893;SDS011;9579;49.488;8.226;2022-10-17T06:17:04;6.37;;;4.50;;
18893;SDS011;9579;49.488;8.226;2022-10-17T06:19:51;5.00;;;4.53;;
18893;SDS011;9579;49.488;8.226;2022-10-17T06:22:41;6.38;;;4.22;;
18893;SDS011;9579;49.488;8.226;2022-10-17T06:25:34;5.40;;;4.57;;
18893;SDS011;9579;49.488;8.226;2022-10-17T06:28:29;5.25;;;4.75;;
18893;SDS011;9579;49.488;8.226;2022-10-17T06:31:16;5.17;;;4.73;;
18893;SDS011;9579;49.488;8.226;2022-10-17T06:34:06;4.53;;;4.13;;
18893;SDS011;9579;49.488;8.226;2022-10-17T06:36:53;4.90;;;4.40;;
18893;SDS011;9579;49.488;8.226;2022-10-17T06:39:41;4.70;;;4.40;;
18893;SDS011;9579;49.488;8.226;2022-10-17T06:42:32;4.97;;;4.57;;
18893;SDS011;9579;49.488;8.226;2022-10-17T06:45:20;4.70;;;4.30;;
18893;SDS011;9579;49.488;8.226;2022-10-17T06:48:20;5.50;;;5.00;;
18893;SDS011;9579;49.488;8.226;2022-10-17T06:51:10;7.53;;;5.18;;
18893;SDS011;9579;49.488;8.226;2022-10-17T06:54:11;5.35;;;4.82;;
18893;SDS011;9579;49.488;8.226;2022-10-17T06:57:22;5.55;;;5.00;;
18893;SDS011;9579;49.488;8.226;2022-10-17T07:04:06;8.10;;;5.15;;
18893;SDS011;9579;49.488;8.226;2022-10-17T07:07:15;5.28;;;4.78;;
18893;SDS011;9579;49.488;8.226;2022-10-17T07:10:18;6.15;;;4.53;;
18893;SDS011;9579;49.488;8.226;2022-10-17T07:14:14;6.88;;;4.82;;
18893;SDS011;9579;49.488;8.226;2022-10-17T08:20:51;7.57;;;4.95;;
18893;SDS011;9579;49.488;8.226;2022-10-17T08:24:25;7.10;;;5.15;;
18893;SDS011;9579;49.488;8.226;2022-10-17T08:26:55;6.53;;;4.47;;
18893;SDS011;9579;49.488;8.226;2022-10-17T08:29:53;5.82;;;5.20;;
18893;SDS011;9579;49.488;8.226;2022-10-17T08:32:41;4.72;;;4.32;;
18893;SDS011;9579;49.488;8.226;2022-10-17T08:35:28;4.95;;;4.50;;
18893;SDS011;9579;49.488;8.226;2022-10-17T08:38:17;5.38;;;4.70;;
18893;SDS011;9579;49.488;8.226;2022-10-17T08:41:05;5.63;;;5.07;;
18893;SDS011;9579;49.488;8.226;2022-10-17T08:44:02;6.28;;;4.75;;
18893;SDS011;9579;49.488;8.226;2022-10-17T08:46:57;5.57;;;4.38;;
18893;SDS011;9579;49.488;8.226;2022-10-17T08:49:48;7.10;;;4.53;;
18893;SDS011;9579;49.488;8.226;2022-10-17T08:52:41;4.82;;;4.30;;
18893;SDS011;9579;49.488;8.226;2022-10-17T08:55:36;8.77;;;4.50;;
18893;SDS011;9579;49.488;8.226;2022-10-17T08:58:26;6.40;;;4.20;;
18893;SDS011;9579;49.488;8.226;2022-10-17T09:01:24;5.78;;;4.47;;
18893;SDS011;9579;49.488;8.226;2022-10-17T09:04:27;6.95;;;4.80;;
18893;SDS011;9579;49.488;8.226;2022-10-17T09:07:42;5.65;;;4.30;;
18893;SDS011;9579;49.488;8.226;2022-10-17T09:10:37;5.65;;;4.60;;
18893;SDS011;9579;49.488;8.226;2022-10-17T09:13:38;5.30;;;4.60;;
18893;SDS011;9579;49.488;8.226;2022-10-17T09:16:44;5.10;;;4.60;;
18893;SDS011;9579;49.488;8.226;2022-10-17T09:19:47;5.05;;;4.35;;
18893;SDS011;9579;49.488;8.226;2022-10-17T09:22:43;5.60;;;4.72;;
18893;SDS011;9579;49.488;8.226;2022-10-17T09:25:39;5.60;;;5.00;;
18893;SDS011;9579;49.488;8.226;2022-10-17T09:28:30;4.82;;;4.43;;
18893;SDS011;9579;49.488;8.226;2022-10-17T09:31:20;8.25;;;4.60;;
18893;SDS011;9579;49.488;8.226;2022-10-17T09:34:11;6.03;;;5.00;;
18893;SDS011;9579;49.488;8.226;2022-10-17T09:36:58;4.78;;;4.28;;
18893;SDS011;9579;49.488;8.226;2022-10-17T09:39:46;4.78;;;4.13;;
18893;SDS011;9579;49.488;8.226;2022-10-17T09:42:35;4.55;;;4.10;;
18893;SDS011;9579;49.488;8.226;2022-10-17T09:45:23;5.80;;;5.20;;
18893;SDS011;9579;49.488;8.226;2022-10-17T09:48:14;7.68;;;4.78;;
18893;SDS011;9579;49.488;8.226;2022-10-17T09:51:07;4.90;;;4.40;;
18893;SDS011;9579;49.488;8.226;2022-10-17T09:53:55;5.15;;;4.65;;
18893;SDS011;9579;49.488;8.226;2022-10-17T09:56:56;6.30;;;4.13;;
18893;SDS011;9579;49.488;8.226;2022-10-17T09:59:47;4.97;;;4.32;;
18893;SDS011;9579;49.488;8.226;2022-10-17T10:02:41;5.93;;;4.45;;
18893;SDS011;9579;49.488;8.226;2022-10-17T10:05:28;4.40;;;3.95;;
18893;SDS011;9579;49.488;8.226;2022-10-17T10:08:16;5.47;;;4.55;;
18893;SDS011;9579;49.488;8.226;2022-10-17T10:11:05;5.05;;;4.20;;
18893;SDS011;9579;49.488;8.226;2022-10-17T10:13:54;6.85;;;4.38;;
18893;SDS011;9579;49.488;8.226;2022-10-17T10:16:58;4.57;;;4.20;;
18893;SDS011;9579;49.488;8.226;2022-10-17T10:19:48;4.80;;;4.25;;
18893;SDS011;9579;49.488;8.226;2022-10-17T10:22:36;5.10;;;4.63;;
18893;SDS011;9579;49.488;8.226;2022-10-17T10:25:23;5.57;;;4.53;;
18893;SDS011;9579;49.488;8.226;2022-10-17T10:28:10;5.43;;;4.30;;
18893;SDS011;9579;49.488;8.226;2022-10-17T10:30:57;4.80;;;4.22;;
18893;SDS011;9579;49.488;8.226;2022-10-17T10:33:53;4.38;;;3.97;;
18893;SDS011;9579;49.488;8.226;2022-10-17T10:36:44;4.13;;;3.72;;
18893;SDS011;9579;49.488;8.226;2022-10-17T10:39:37;7.97;;;4.57;;
18893;SDS011;9579;49.488;8.226;2022-10-17T10:42:28;4.88;;;4.40;;
18893;SDS011;9579;49.488;8.226;2022-10-17T10:45:18;4.30;;;3.90;;
18893;SDS011;9579;49.488;8.226;2022-10-17T10:48:13;3.97;;;3.67;;
18893;SDS011;9579;49.488;8.226;2022-10-17T10:51:07;5.07;;;4.03;;
18893;SDS011;9579;49.488;8.226;2022-10-17T10:54:00;5.50;;;4.10;;
18893;SDS011;9579;49.488;8.226;2022-10-17T10:56:51;3.75;;;3.00;;
18893;SDS011;9579;49.488;8.226;2022-10-17T10:59:41;4.20;;;3.47;;
18893;SDS011;9579;49.488;8.226;2022-10-17T11:02:36;5.10;;;3.70;;
18893;SDS011;9579;49.488;8.226;2022-10-17T11:05:34;3.97;;;3.58;;
18893;SDS011;9579;49.488;8.226;2022-10-17T11:08:28;3.92;;;3.33;;
18893;SDS011;9579;49.488;8.226;2022-10-17T11:11:24;4.70;;;3.55;;
18893;SDS011;9579;49.488;8.226;2022-10-17T11:14:15;4.95;;;4.10;;
18893;SDS011;9579;49.488;8.226;2022-10-17T11:17:08;3.80;;;3.42;;
18893;SDS011;9579;49.488;8.226;2022-10-17T11:20:08;6.00;;;3.40;;
18893;SDS011;9579;49.488;8.226;2022-10-17T11:23:01;3.75;;;3.33;;
18893;SDS011;9579;49.488;8.226;2022-10-17T11:26:07;5.47;;;3.17;;
18893;SDS011;9579;49.488;8.226;2022-10-17T11:29:01;3.38;;;3.08;;
18893;SDS011;9579;49.488;8.226;2022-10-17T11:31:51;4.05;;;3.10;;
18893;SDS011;9579;49.488;8.226;2022-10-17T11:34:40;3.65;;;2.72;;
18893;SDS011;9579;49.488;8.226;2022-10-17T11:37:30;3.45;;;2.92;;
18893;SDS011;9579;49.488;8.226;2022-10-17T11:40:21;4.65;;;2.88;;
18893;SDS011;9579;49.488;8.226;2022-10-17T11:43:16;3.15;;;2.83;;
18893;SDS011;9579;49.488;8.226;2022-10-17T11:46:10;5.35;;;2.80;;
18893;SDS011;9579;49.488;8.226;2022-10-17T11:49:03;4.35;;;3.00;;
18893;SDS011;9579;49.488;8.226;2022-10-17T11:51:56;4.47;;;2.90;;
18893;SDS011;9579;49.488;8.226;2022-10-17T11:54:52;4.57;;;3.22;;
18893;SDS011;9579;49.488;8.226;2022-10-17T11:57:46;3.70;;;3.20;;
18893;SDS011;9579;49.488;8.226;2022-10-17T12:00:50;4.38;;;2.90;;
18893;SDS011;9579;49.488;8.226;2022-10-17T12:03:45;4.35;;;3.05;;
18893;SDS011;9579;49.488;8.226;2022-10-17T12:06:44;5.07;;;2.83;;
18893;SDS011;9579;49.488;8.226;2022-10-17T12:09:39;4.35;;;3.00;;
18893;SDS011;9579;49.488;8.226;2022-10-17T12:12:31;5.30;;;3.10;;
18893;SDS011;9579;49.488;8.226;2022-10-17T12:15:30;2.97;;;2.78;;
18893;SDS011;9579;49.488;8.226;2022-10-17T12:18:19;3.97;;;2.90;;
18893;SDS011;9579;49.488;8.226;2022-10-17T12:21:11;3.10;;;2.70;;
18893;SDS011;9579;49.488;8.226;2022-10-17T12:23:58;3.10;;;2.50;;
18893;SDS011;9579;49.488;8.226;2022-10-17T12:26:45;3.15;;;2.47;;
18893;SDS011;9579;49.488;8.226;2022-10-17T12:29:32;3.75;;;2.88;;
18893;SDS011;9579;49.488;8.226;2022-10-17T12:32:20;2.60;;;2.40;;
18893;SDS011;9579;49.488;8.226;2022-10-17T12:35:13;4.20;;;2.50;;
18893;SDS011;9579;49.488;8.226;2022-10-17T12:41:13;6.68;;;2.47;;
18893;SDS011;9579;49.488;8.226;2022-10-17T12:44:01;6.07;;;2.70;;
18893;SDS011;9579;49.488;8.226;2022-10-17T12:53:51;5.07;;;2.60;;
18893;SDS011;9579;49.488;8.226;2022-10-17T12:56:43;5.35;;;2.75;;
18893;SDS011;9579;49.488;8.226;2022-10-17T12:59:33;6.03;;;2.70;;
18893;SDS011;9579;49.488;8.226;2022-10-17T13:02:20;3.95;;;3.00;;
18893;SDS011;9579;49.488;8.226;2022-10-17T13:05:13;4.90;;;2.60;;
18893;SDS011;9579;49.488;8.226;2022-10-17T13:08:04;3.47;;;2.67;;
18893;SDS011;9579;49.488;8.226;2022-10-17T13:10:59;5.63;;;2.65;;
18893;SDS011;9579;49.488;8.226;2022-10-17T13:13:47;4.13;;;2.50;;
18893;SDS011;9579;49.488;8.226;2022-10-17T13:16:37;3.28;;;2.40;;
18893;SDS011;9579;49.488;8.226;2022-10-17T13:19:28;2.65;;;2.42;;
18893;SDS011;9579;49.488;8.226;2022-10-17T13:22:17;4.80;;;2.70;;
18893;SDS011;9579;49.488;8.226;2022-10-17T13:25:08;4.15;;;2.67;;
18893;SDS011;9579;49.488;8.226;2022-10-17T13:28:09;5.38;;;2.78;;
18893;SDS011;9579;49.488;8.226;2022-10-17T13:30:58;3.50;;;2.60;;
18893;SDS011;9579;49.488;8.226;2022-10-17T13:33:45;3.72;;;2.50;;
18893;SDS011;9579;49.488;8.226;2022-10-17T13:36:32;4.10;;;2.30;;
18893;SDS011;9579;49.488;8.226;2022-10-17T13:39:21;4.82;;;2.50;;
18893;SDS011;9579;49.488;8.226;2022-10-17T13:42:16;4.38;;;2.60;;
18893;SDS011;9579;49.488;8.226;2022-10-17T13:45:11;7.00;;;2.83;;
18893;SDS011;9579;49.488;8.226;2022-10-17T13:48:04;4.95;;;2.65;;
18893;SDS011;9579;49.488;8.226;2022-10-17T13:51:03;4.57;;;2.55;;
18893;SDS011;9579;49.488;8.226;2022-10-17T13:53:51;3.03;;;2.60;;
18893;SDS011;9579;49.488;8.226;2022-10-17T13:56:39;4.50;;;2.97;;
18893;SDS011;9579;49.488;8.226;2022-10-17T13:59:29;3.30;;;2.45;;
18893;SDS011;9579;49.488;8.226;2022-10-17T14:02:20;5.15;;;2.60;;
18893;SDS011;9579;49.488;8.226;2022-10-17T14:05:10;3.65;;;2.70;;
18893;SDS011;9579;49.488;8.226;2022-10-17T14:07:59;6.93;;;2.78;;
18893;SDS011;9579;49.488;8.226;2022-10-17T14:10:48;3.67;;;2.63;;
18893;SDS011;9579;49.488;8.226;2022-10-17T14:13:35;3.63;;;2.70;;
18893;SDS011;9579;49.488;8.226;2022-10-17T14:16:24;5.53;;;2.60;;
18893;SDS011;9579;49.488;8.226;2022-10-17T14:19:16;5.03;;;2.53;;
18893;SDS011;9579;49.488;8.226;2022-10-17T14:22:16;3.30;;;2.50;;
18893;SDS011;9579;49.488;8.226;2022-10-17T14:25:25;3.97;;;2.83;;
18893;SDS011;9579;49.488;8.226;2022-10-17T14:28:14;4.47;;;2.60;;
18893;SDS011;9579;49.488;8.226;2022-10-17T14:34:20;3.08;;;2.75;;
18893;SDS011;9579;49.488;8.226;2022-10-17T14:37:11;4.50;;;2.75;;
18893;SDS011;9579;49.488;8.226;2022-10-17T14:40:06;6.20;;;3.08;;
18893;SDS011;9579;49.488;8.226;2022-10-17T14:42:54;4.72;;;3.05;;
18893;SDS011;9579;49.488;8.226;2022-10-17T14:45:44;5.25;;;3.28;;
18893;SDS011;9579;49.488;8.226;2022-10-17T14:48:33;5.53;;;3.10;;
18893;SDS011;9579;49.488;8.226;2022-10-17T14:51:20;3.58;;;3.00;;
18893;SDS011;9579;49.488;8.226;2022-10-17T14:54:16;4.43;;;3.00;;
18893;SDS011;9579;49.488;8.226;2022-10-17T14:57:07;3.35;;;3.05;;
18893;SDS011;9579;49.488;8.226;2022-10-17T15:00:00;3.80;;;3.28;;
18893;SDS011;9579;49.488;8.226;2022-10-17T15:02:49;6.43;;;3.55;;
18893;SDS011;9579;49.488;8.226;2022-10-17T15:05:39;7.40;;;3.40;;
18893;SDS011;9579;49.488;8.226;2022-10-17T15:08:26;4.70;;;3.38;;
18893;SDS011;9579;49.488;8.226;2022-10-17T15:11:13;5.90;;;3.95;;
18893;SDS011;9579;49.488;8.226;2022-10-17T15:14:00;4.82;;;3.30;;
18893;SDS011;9579;49.488;8.226;2022-10-17T15:16:50;4.90;;;3.22;;
18893;SDS011;9579;49.488;8.226;2022-10-17T15:19:37;3.72;;;3.33;;
18893;SDS011;9579;49.488;8.226;2022-10-17T15:22:25;4.35;;;3.00;;
18893;SDS011;9579;49.488;8.226;2022-10-17T15:25:12;4.07;;;2.90;;
18893;SDS011;9579;49.488;8.226;2022-10-17T15:28:01;3.60;;;3.15;;
18893;SDS011;9579;49.488;8.226;2022-10-17T15:30:49;3.75;;;3.00;;
18893;SDS011;9579;49.488;8.226;2022-10-17T15:33:36;5.68;;;3.13;;
18893;SDS011;9579;49.488;8.226;2022-10-17T15:36:23;5.93;;;3.20;;
18893;SDS011;9579;49.488;8.226;2022-10-17T15:39:13;8.65;;;3.10;;
18893;SDS011;9579;49.488;8.226;2022-10-17T15:42:00;4.82;;;3.17;;
18893;SDS011;9579;49.488;8.226;2022-10-17T15:44:47;5.00;;;3.33;;
18893;SDS011;9579;49.488;8.226;2022-10-17T15:47:35;5.25;;;3.47;;
18893;SDS011;9579;49.488;8.226;2022-10-17T15:50:38;4.22;;;3.60;;
18893;SDS011;9579;49.488;8.226;2022-10-17T15:53:25;4.72;;;3.60;;
18893;SDS011;9579;49.488;8.226;2022-10-17T15:56:17;4.95;;;3.70;;
18893;SDS011;9579;49.488;8.226;2022-10-17T15:59:09;4.20;;;3.78;;
18893;SDS011;9579;49.488;8.226;2022-10-17T16:02:00;6.32;;;3.47;;
18893;SDS011;9579;49.488;8.226;2022-10-17T16:04:47;5.32;;;3.72;;
18893;SDS011;9579;49.488;8.226;2022-10-17T16:07:36;6.05;;;3.90;;
18893;SDS011;9579;49.488;8.226;2022-10-17T16:10:23;5.68;;;3.75;;
18893;SDS011;9579;49.488;8.226;2022-10-17T16:13:12;5.30;;;4.05;;
18893;SDS011;9579;49.488;8.226;2022-10-17T16:16:03;5.32;;;3.70;;
18893;SDS011;9579;49.488;8.226;2022-10-17T16:19:04;3.97;;;3.67;;
18893;SDS011;9579;49.488;8.226;2022-10-17T16:21:52;3.80;;;3.50;;
18893;SDS011;9579;49.488;8.226;2022-10-17T16:24:41;4.55;;;3.45;;
18893;SDS011;9579;49.488;8.226;2022-10-17T16:27:42;4.13;;;3.70;;
18893;SDS011;9579;49.488;8.226;2022-10-17T16:30:29;4.10;;;3.70;;
18893;SDS011;9579;49.488;8.226;2022-10-17T16:33:17;4.00;;;3.60;;
18893;SDS011;9579;49.488;8.226;2022-10-17T16:36:04;4.32;;;3.58;;
18893;SDS011;9579;49.488;8.226;2022-10-17T16:38:52;4.55;;;3.85;;
18893;SDS011;9579;49.488;8.226;2022-10-17T16:41:40;4.80;;;3.80;;
18893;SDS011;9579;49.488;8.226;2022-10-17T16:44:28;4.60;;;3.67;;
18893;SDS011;9579;49.488;8.226;2022-10-17T16:47:15;4.57;;;3.42;;
18893;SDS011;9579;49.488;8.226;2022-10-17T16:50:03;6.05;;;4.20;;
18893;SDS011;9579;49.488;8.226;2022-10-17T16:52:50;5.25;;;4.05;;
18893;SDS011;9579;49.488;8.226;2022-10-17T16:55:37;5.47;;;3.92;;
18893;SDS011;9579;49.488;8.226;2022-10-17T16:58:25;4.05;;;3.65;;
18893;SDS011;9579;49.488;8.226;2022-10-17T17:01:20;4.55;;;3.80;;
18893;SDS011;9579;49.488;8.226;2022-10-17T17:04:09;4.00;;;3.70;;
18893;SDS011;9579;49.488;8.226;2022-10-17T17:06:56;6.15;;;3.80;;
18893;SDS011;9579;49.488;8.226;2022-10-17T17:09:43;4.82;;;3.95;;
18893;SDS011;9579;49.488;8.226;2022-10-17T17:12:30;5.35;;;4.25;;
18893;SDS011;9579;49.488;8.226;2022-10-17T17:15:19;8.00;;;4.57;;
18893;SDS011;9579;49.488;8.226;2022-10-17T17:18:06;7.07;;;4.18;;
18893;SDS011;9579;49.488;8.226;2022-10-17T17:20:56;4.97;;;4.38;;
18893;SDS011;9579;49.488;8.226;2022-10-17T17:23:43;3.97;;;3.58;;
18893;SDS011;9579;49.488;8.226;2022-10-17T17:26:32;3.85;;;3.45;;
18893;SDS011;9579;49.488;8.226;2022-10-17T17:29:26;5.00;;;3.30;;
18893;SDS011;9579;49.488;8.226;2022-10-17T17:32:28;4.40;;;4.00;;
18893;SDS011;9579;49.488;8.226;2022-10-17T17:38:54;5.10;;;4.40;;
18893;SDS011;9579;49.488;8.226;2022-10-17T17:41:49;5.18;;;4.30;;
18893;SDS011;9579;49.488;8.226;2022-10-17T17:48:19;5.40;;;4.40;;
18893;SDS011;9579;49.488;8.226;2022-10-17T18:00:39;9.13;;;8.35;;
18893;SDS011;9579;49.488;8.226;2022-10-17T18:03:39;8.93;;;8.00;;
18893;SDS011;9579;49.488;8.226;2022-10-17T18:06:27;7.65;;;6.93;;
18893;SDS011;9579;49.488;8.226;2022-10-17T18:09:14;6.18;;;5.68;;
18893;SDS011;9579;49.488;8.226;2022-10-17T18:12:01;5.25;;;4.75;;
18893;SDS011;9579;49.488;8.226;2022-10-17T18:14:48;5.10;;;4.60;;
18893;SDS011;9579;49.488;8.226;2022-10-17T18:17:46;4.72;;;4.18;;
18893;SDS011;9579;49.488;8.226;2022-10-17T18:23:31;5.72;;;5.05;;
18893;SDS011;9579;49.488;8.226;2022-10-17T18:26:18;4.80;;;4.40;;
18893;SDS011;9579;49.488;8.226;2022-10-17T18:29:05;4.85;;;4.38;;
18893;SDS011;9579;49.488;8.226;2022-10-17T18:31:52;5.28;;;4.60;;
18893;SDS011;9579;49.488;8.226;2022-10-17T18:34:39;4.90;;;4.50;;
18893;SDS011;9579;49.488;8.226;2022-10-17T18:37:28;5.47;;;4.40;;
18893;SDS011;9579;49.488;8.226;2022-10-17T18:43:34;5.60;;;5.00;;
18893;SDS011;9579;49.488;8.226;2022-10-17T18:46:25;4.90;;;4.50;;
18893;SDS011;9579;49.488;8.226;2022-10-17T18:49:14;6.90;;;4.60;;
18893;SDS011;9579;49.488;8.226;2022-10-17T18:52:10;5.30;;;4.80;;
18893;SDS011;9579;49.488;8.226;2022-10-17T18:54:58;6.88;;;4.82;;
18893;SDS011;9579;49.488;8.226;2022-10-17T18:58:02;8.60;;;5.10;;
18893;SDS011;9579;49.488;8.226;2022-10-17T19:04:31;5.18;;;4.68;;
18893;SDS011;9579;49.488;8.226;2022-10-17T19:07:18;5.78;;;5.28;;
18893;SDS011;9579;49.488;8.226;2022-10-17T19:10:07;6.03;;;5.35;;
18893;SDS011;9579;49.488;8.226;2022-10-17T19:12:54;6.13;;;5.53;;
18893;SDS011;9579;49.488;8.226;2022-10-17T19:15:47;5.43;;;5.03;;
18893;SDS011;9579;49.488;8.226;2022-10-17T19:18:41;7.07;;;5.88;;
18893;SDS011;9579;49.488;8.226;2022-10-17T19:21:28;6.55;;;5.25;;
18893;SDS011;9579;49.488;8.226;2022-10-17T19:24:16;6.30;;;5.72;;
18893;SDS011;9579;49.488;8.226;2022-10-17T19:30:35;7.82;;;5.70;;
18893;SDS011;9579;49.488;8.226;2022-10-17T19:33:30;7.28;;;6.30;;
18893;SDS011;9579;49.488;8.226;2022-10-17T19:36:19;6.95;;;6.20;;
18893;SDS011;9579;49.488;8.226;2022-10-17T19:39:09;6.57;;;5.97;;
18893;SDS011;9579;49.488;8.226;2022-10-17T19:41:57;6.07;;;5.57;;
18893;SDS011;9579;49.488;8.226;2022-10-17T19:48:22;9.15;;;5.60;;
18893;SDS011;9579;49.488;8.226;2022-10-17T19:51:11;6.15;;;5.38;;
18893;SDS011;9579;49.488;8.226;2022-10-17T19:54:00;6.03;;;5.43;;
18893;SDS011;9579;49.488;8.226;2022-10-17T19:56:47;7.40;;;5.13;;
18893;SDS011;9579;49.488;8.226;2022-10-17T19:59:34;5.63;;;4.65;;
18893;SDS011;9579;49.488;8.226;2022-10-17T20:02:21;6.95;;;5.30;;
18893;SDS011;9579;49.488;8.226;2022-10-17T20:05:10;6.53;;;5.32;;
18893;SDS011;9579;49.488;8.226;2022-10-17T20:07:57;5.43;;;4.93;;
18893;SDS011;9579;49.488;8.226;2022-10-17T20:10:44;6.40;;;5.43;;
18893;SDS011;9579;49.488;8.226;2022-10-17T20:13:33;6.82;;;5.38;;
18893;SDS011;9579;49.488;8.226;2022-10-17T20:16:21;6.18;;;5.57;;
18893;SDS011;9579;49.488;8.226;2022-10-17T20:19:11;7.53;;;5.90;;
18893;SDS011;9579;49.488;8.226;2022-10-17T20:21:59;6.47;;;5.88;;
18893;SDS011;9579;49.488;8.226;2022-10-17T20:24:46;6.30;;;5.70;;
18893;SDS011;9579;49.488;8.226;2022-10-17T20:27:36;9.38;;;5.65;;
18893;SDS011;9579;49.488;8.226;2022-10-17T20:30:23;9.65;;;6.20;;
18893;SDS011;9579;49.488;8.226;2022-10-17T20:33:10;5.95;;;5.35;;
18893;SDS011;9579;49.488;8.226;2022-10-17T20:35:58;7.07;;;5.60;;
18893;SDS011;9579;49.488;8.226;2022-10-17T20:38:46;5.70;;;5.20;;
18893;SDS011;9579;49.488;8.226;2022-10-17T20:41:36;5.70;;;5.20;;
18893;SDS011;9579;49.488;8.226;2022-10-17T20:44:24;7.00;;;5.47;;
18893;SDS011;9579;49.488;8.226;2022-10-17T20:47:26;7.50;;;6.05;;
18893;SDS011;9579;49.488;8.226;2022-10-17T20:53:57;6.18;;;5.40;;
18893;SDS011;9579;49.488;8.226;2022-10-17T20:57:00;7.07;;;5.70;;
18893;SDS011;9579;49.488;8.226;2022-10-17T21:00:00;8.30;;;7.38;;
18893;SDS011;9579;49.488;8.226;2022-10-17T21:03:03;7.72;;;7.03;;
18893;SDS011;9579;49.488;8.226;2022-10-17T21:09:09;7.63;;;6.43;;
18893;SDS011;9579;49.488;8.226;2022-10-17T21:11:56;10.82;;;7.88;;
18893;SDS011;9579;49.488;8.226;2022-10-17T21:14:43;9.10;;;8.30;;
18893;SDS011;9579;49.488;8.226;2022-10-17T21:17:30;8.48;;;7.63;;
18893;SDS011;9579;49.488;8.226;2022-10-17T21:20:17;8.40;;;7.43;;
18893;SDS011;9579;49.488;8.226;2022-10-17T21:23:11;8.35;;;7.38;;
18893;SDS011;9579;49.488;8.226;2022-10-17T21:26:00;7.78;;;7.05;;
18893;SDS011;9579;49.488;8.226;2022-10-17T21:28:48;9.65;;;6.90;;
18893;SDS011;9579;49.488;8.226;2022-10-17T21:31:36;6.50;;;6.00;;
18893;SDS011;9579;49.488;8.226;2022-10-17T21:34:25;7.70;;;6.00;;
18893;SDS011;9579;49.488;8.226;2022-10-17T21:37:14;5.93;;;5.32;;
18893;SDS011;9579;49.488;8.226;2022-10-17T21:43:42;5.85;;;5.35;;
18893;SDS011;9579;49.488;8.226;2022-10-17T21:46:29;4.60;;;4.22;;
18893;SDS011;9579;49.488;8.226;2022-10-17T21:49:18;3.63;;;3.33;;
18893;SDS011;9579;49.488;8.226;2022-10-17T21:52:06;3.30;;;3.10;;
18893;SDS011;9579;49.488;8.226;2022-10-17T21:54:53;3.78;;;3.47;;
18893;SDS011;9579;49.488;8.226;2022-10-17T21:57:40;3.42;;;3.13;;
18893;SDS011;9579;49.488;8.226;2022-10-17T22:00:28;3.72;;;3.30;;
18893;SDS011;9579;49.488;8.226;2022-10-17T22:03:15;3.70;;;3.35;;
18893;SDS011;9579;49.488;8.226;2022-10-17T22:06:03;3.67;;;3.05;;
18893;SDS011;9579;49.488;8.226;2022-10-17T22:08:51;3.33;;;3.03;;
18893;SDS011;9579;49.488;8.226;2022-10-17T22:11:39;3.10;;;2.90;;
18893;SDS011;9579;49.488;8.226;2022-10-17T22:14:26;3.15;;;2.90;;
18893;SDS011;9579;49.488;8.226;2022-10-17T22:17:15;3.35;;;3.05;;
18893;SDS011;9579;49.488;8.226;2022-10-17T22:20:02;3.60;;;3.30;;
18893;SDS011;9579;49.488;8.226;2022-10-17T22:22:50;5.00;;;4.32;;
18893;SDS011;9579;49.488;8.226;2022-10-17T22:25:37;5.95;;;4.30;;
18893;SDS011;9579;49.488;8.226;2022-10-17T22:28:24;5.10;;;3.88;;
